Time;durP1;ratioP1;P1;durP2;ratioP2;P2;SDS_P1;SDS_P2;PMS_P1;PMS_P2;Temp;Humidity;BMP_temperature;BMP_pressure;BME280_temperature;BME280_humidity;BME280_pressure;Samples;Min_cycle;Max_cycle;Signal;HPM_P1;HPM_P2
2023/08/11 00:00:22;;;;;;;;;;;23.30;99.90;;;;;;5137433;27;19915;-70
2023/08/11 00:02:52;;;;;;;;;;;23.40;99.90;;;;;;5137252;27;19907;-71
2023/08/11 00:05:18;;;;;;;;;;;23.30;99.90;;;;;;5137162;27;19910;-71
2023/08/11 00:07:45;;;;;;;;;;;23.30;99.90;;;;;;5136923;27;20010;-71
2023/08/11 00:10:12;;;;;;;;;;;23.30;99.90;;;;;;5135718;27;19903;-71
2023/08/11 00:12:38;;;;;;;;;;;23.30;99.90;;;;;;5137552;27;19903;-70
2023/08/11 00:15:04;;;;;;;;;;;23.30;99.90;;;;;;5135536;27;20387;-70
2023/08/11 00:17:31;;;;;;;;;;;23.30;99.90;;;;;;5136916;27;19903;-70
2023/08/11 00:19:57;;;;;;;;;;;23.30;99.90;;;;;;5135481;27;20002;-71
2023/08/11 00:22:23;;;;;;;;;;;23.30;99.90;;;;;;5136634;27;19998;-71
2023/08/11 00:24:49;;;;;;;;;;;23.30;99.90;;;;;;5135325;27;19911;-72
2023/08/11 00:27:15;;;;;;;;;;;23.20;99.90;;;;;;5136566;27;19922;-71
2023/08/11 00:29:41;;;;;;;;;;;23.20;99.90;;;;;;5137148;27;19903;-72
2023/08/11 00:32:07;;;;;;;;;;;23.20;99.90;;;;;;5136598;27;19914;-71
2023/08/11 00:34:33;;;;;;;;;;;23.20;99.90;;;;;;5136319;27;20291;-68
2023/08/11 00:36:59;;;;;;;;;;;23.20;99.90;;;;;;5136281;27;19903;-69
2023/08/11 00:39:25;;;;;;;;;;;23.10;99.90;;;;;;5136021;27;19926;-69
2023/08/11 00:41:51;;;;;;;;;;;23.10;99.90;;;;;;5136329;27;19915;-69
2023/08/11 00:44:17;;;;;;;;;;;23.10;99.90;;;;;;5136209;27;20237;-69
2023/08/11 00:46:45;;;;;;;;;;;23.10;99.90;;;;;;5136156;27;20033;-69
2023/08/11 00:49:11;;;;;;;;;;;23.20;99.90;;;;;;5136311;27;19926;-69
2023/08/11 00:51:37;;;;;;;;;;;23.20;99.90;;;;;;5134705;27;20359;-69
2023/08/11 00:54:06;;;;;;;;;;;23.20;99.90;;;;;;5136370;27;19904;-69
2023/08/11 00:56:32;;;;;;;;;;;23.10;99.90;;;;;;5135991;27;19951;-69
2023/08/11 00:58:57;;;;;;;;;;;23.10;99.90;;;;;;5136020;27;19911;-70
2023/08/11 01:01:24;;;;;;;;;;;23.10;99.90;;;;;;5136378;27;20010;-70
2023/08/11 01:03:50;;;;;;;;;;;23.10;99.90;;;;;;5135953;27;19953;-70
2023/08/11 01:06:39;;;;;;;;;;;23.10;99.90;;;;;;5135772;27;20266;-69
2023/08/11 01:09:16;;;;;;;;;;;23.10;99.90;;;;;;5136160;27;19907;-70
2023/08/11 01:12:03;;;;;;;;;;;23.10;99.90;;;;;;5135817;27;19950;-71
2023/08/11 01:14:49;;;;;;;;;;;23.00;99.90;;;;;;5104631;27;19910;-69
2023/08/11 01:17:17;;;;;;;;;;;23.00;99.90;;;;;;5136031;27;19915;-70
2023/08/11 01:19:44;;;;;;;;;;;23.00;99.90;;;;;;5135701;27;19910;-70
2023/08/11 01:22:11;;;;;;;;;;;23.00;99.90;;;;;;5133910;27;20391;-70
2023/08/11 01:24:37;;;;;;;;;;;23.00;99.90;;;;;;5134241;27;20287;-70
2023/08/11 01:27:03;;;;;;;;;;;22.90;99.90;;;;;;5134251;27;19903;-70
2023/08/11 01:29:29;;;;;;;;;;;23.00;99.90;;;;;;5136085;27;19911;-71
2023/08/11 01:31:55;;;;;;;;;;;22.90;99.90;;;;;;5135455;27;19907;-70
2023/08/11 01:34:21;;;;;;;;;;;22.90;99.90;;;;;;5135476;27;19903;-70
2023/08/11 01:36:50;;;;;;;;;;;22.90;99.90;;;;;;5133940;27;19903;-70
2023/08/11 01:39:16;;;;;;;;;;;22.80;99.90;;;;;;5135196;27;19922;-70
2023/08/11 01:41:42;;;;;;;;;;;22.70;99.90;;;;;;5133886;27;19916;-70
2023/08/11 01:44:08;;;;;;;;;;;22.70;99.90;;;;;;5135557;27;19926;-71
2023/08/11 01:46:34;;;;;;;;;;;22.70;99.90;;;;;;5135177;27;19903;-70
2023/08/11 01:49:01;;;;;;;;;;;22.70;99.90;;;;;;5133746;27;19908;-70
2023/08/11 01:51:27;;;;;;;;;;;22.60;99.90;;;;;;5133587;27;19910;-71
2023/08/11 01:53:52;;;;;;;;;;;22.70;99.90;;;;;;5135077;27;19903;-70
2023/08/11 01:56:20;;;;;;;;;;;22.60;99.90;;;;;;5135574;27;20271;-71
2023/08/11 01:58:46;;;;;;;;;;;22.60;99.90;;;;;;5135218;27;19910;-71
2023/08/11 02:01:13;;;;;;;;;;;22.50;99.90;;;;;;5134918;27;19919;-70
2023/08/11 02:03:39;;;;;;;;;;;22.60;99.90;;;;;;5134454;27;19911;-70
2023/08/11 02:06:05;;;;;;;;;;;22.60;99.90;;;;;;5134679;27;19908;-70
2023/08/11 02:08:32;;;;;;;;;;;22.60;99.90;;;;;;5133446;27;19926;-70
2023/08/11 02:10:58;;;;;;;;;;;22.50;99.90;;;;;;5134711;27;19903;-70
2023/08/11 02:13:24;;;;;;;;;;;22.50;99.90;;;;;;5135203;27;19948;-72
2023/08/11 02:15:50;;;;;;;;;;;22.50;99.90;;;;;;5134626;27;19907;-71
2023/08/11 02:18:15;;;;;;;;;;;22.50;99.90;;;;;;5134546;27;19903;-71
2023/08/11 02:20:41;;;;;;;;;;;22.50;99.90;;;;;;5134978;27;20365;-71
2023/08/11 02:23:08;;;;;;;;;;;22.40;99.90;;;;;;5134324;27;19911;-71
2023/08/11 02:25:34;;;;;;;;;;;22.30;99.90;;;;;;5134435;27;20027;-71
2023/08/11 02:28:01;;;;;;;;;;;22.30;99.90;;;;;;5134426;27;19915;-70
2023/08/11 02:30:30;;;;;;;;;;;22.30;99.90;;;;;;5134385;27;19904;-71
2023/08/11 02:32:56;;;;;;;;;;;22.30;99.90;;;;;;5134258;27;20335;-70
2023/08/11 02:35:22;;;;;;;;;;;22.30;99.90;;;;;;5134747;27;19967;-70
2023/08/11 02:37:48;;;;;;;;;;;22.30;99.90;;;;;;5133927;27;19915;-69
2023/08/11 02:40:14;;;;;;;;;;;22.30;99.90;;;;;;5134448;27;20009;-71
2023/08/11 02:42:48;;;;;;;;;;;22.30;99.90;;;;;;5132727;27;20316;-70
2023/08/11 02:45:15;;;;;;;;;;;22.30;99.90;;;;;;5132812;27;20355;-70
2023/08/11 02:47:41;;;;;;;;;;;22.30;99.90;;;;;;5134013;27;19903;-70
2023/08/11 02:50:08;;;;;;;;;;;22.30;99.90;;;;;;5132716;27;20286;-71
2023/08/11 02:52:34;;;;;;;;;;;22.30;99.90;;;;;;5134153;27;20019;-70
2023/08/11 02:55:01;;;;;;;;;;;22.30;99.90;;;;;;5134333;27;19903;-70
2023/08/11 02:57:27;;;;;;;;;;;22.30;99.90;;;;;;5134047;27;19986;-70
2023/08/11 02:59:53;;;;;;;;;;;22.30;99.90;;;;;;5134049;27;19949;-70
2023/08/11 03:02:19;;;;;;;;;;;22.30;99.90;;;;;;5132454;27;20224;-70
2023/08/11 03:04:45;;;;;;;;;;;22.20;99.90;;;;;;5132552;27;19929;-70
2023/08/11 03:07:12;;;;;;;;;;;22.10;99.90;;;;;;5133927;27;19983;-70
2023/08/11 03:09:39;;;;;;;;;;;22.10;99.90;;;;;;5133842;27;19903;-70
2023/08/11 03:12:05;;;;;;;;;;;22.00;99.90;;;;;;5133919;27;19984;-70
2023/08/11 03:14:31;;;;;;;;;;;22.00;99.90;;;;;;5134369;27;19904;-70
2023/08/11 03:16:59;;;;;;;;;;;22.00;99.90;;;;;;5136275;27;19956;-69
2023/08/11 03:19:25;;;;;;;;;;;22.10;99.90;;;;;;5136669;27;19907;-69
2023/08/11 03:21:51;;;;;;;;;;;22.10;99.90;;;;;;5137729;27;19911;-70
2023/08/11 03:24:17;;;;;;;;;;;22.10;99.90;;;;;;5138507;27;19903;-70
2023/08/11 03:26:42;;;;;;;;;;;22.10;99.90;;;;;;5138066;27;20355;-70
2023/08/11 03:29:09;;;;;;;;;;;22.10;99.90;;;;;;5137868;27;20047;-71
2023/08/11 03:31:35;;;;;;;;;;;22.10;99.90;;;;;;5138371;27;19911;-70
2023/08/11 03:34:01;;;;;;;;;;;22.00;99.90;;;;;;5138159;27;19926;-70
2023/08/11 03:36:27;;;;;;;;;;;22.10;99.90;;;;;;5138150;27;19904;-70
2023/08/11 03:38:53;;;;;;;;;;;22.00;99.90;;;;;;5136140;27;20006;-72
2023/08/11 03:41:19;;;;;;;;;;;22.10;99.90;;;;;;5137636;27;19918;-70
2023/08/11 03:43:44;;;;;;;;;;;22.10;99.90;;;;;;5136299;27;20330;-70
2023/08/11 03:46:10;;;;;;;;;;;22.10;99.90;;;;;;5136297;27;19903;-72
2023/08/11 03:48:36;;;;;;;;;;;22.10;99.90;;;;;;5138043;27;20010;-70
2023/08/11 03:51:02;;;;;;;;;;;22.10;99.90;;;;;;5137579;27;19904;-70
2023/08/11 03:53:29;;;;;;;;;;;22.10;99.90;;;;;;5137196;27;19940;-70
2023/08/11 03:55:55;;;;;;;;;;;22.10;99.90;;;;;;5135982;27;20378;-70
2023/08/11 03:58:21;;;;;;;;;;;22.10;99.90;;;;;;5137659;27;19904;-70
2023/08/11 04:00:50;;;;;;;;;;;22.20;99.90;;;;;;5137207;27;19926;-70
2023/08/11 04:03:16;;;;;;;;;;;22.20;99.90;;;;;;5137426;27;19904;-70
2023/08/11 04:05:42;;;;;;;;;;;22.20;99.90;;;;;;5137243;27;19910;-70
2023/08/11 04:08:08;;;;;;;;;;;22.20;99.90;;;;;;5137096;27;19930;-70
2023/08/11 04:10:37;;;;;;;;;;;22.10;99.90;;;;;;5137077;27;19964;-71
2023/08/11 04:13:04;;;;;;;;;;;22.20;99.90;;;;;;5137371;27;19907;-70
2023/08/11 04:15:31;;;;;;;;;;;22.10;99.90;;;;;;5137029;27;19903;-70
2023/08/11 04:17:57;;;;;;;;;;;22.20;99.90;;;;;;5135650;27;19903;-71
2023/08/11 04:20:23;;;;;;;;;;;22.10;99.90;;;;;;5137339;27;19911;-70
2023/08/11 04:22:49;;;;;;;;;;;22.10;99.90;;;;;;5136732;27;19911;-70
2023/08/11 04:25:15;;;;;;;;;;;22.00;99.90;;;;;;5135432;27;19903;-71
2023/08/11 04:27:41;;;;;;;;;;;22.00;99.90;;;;;;5136476;27;20003;-70
2023/08/11 04:30:08;;;;;;;;;;;22.10;99.90;;;;;;5137224;27;20252;-70
2023/08/11 04:32:34;;;;;;;;;;;22.20;99.90;;;;;;5136624;27;19975;-71
2023/08/11 04:35:00;;;;;;;;;;;22.20;99.90;;;;;;5137129;27;19903;-70
2023/08/11 04:37:26;;;;;;;;;;;22.20;99.90;;;;;;5136295;27;19912;-71
2023/08/11 04:39:52;;;;;;;;;;;22.20;99.90;;;;;;5136718;27;19953;-70
2023/08/11 04:42:19;;;;;;;;;;;22.20;99.90;;;;;;5136433;27;19915;-70
2023/08/11 04:44:45;;;;;;;;;;;22.20;99.90;;;;;;5136394;27;19968;-70
2023/08/11 04:47:12;;;;;;;;;;;22.20;99.90;;;;;;5136863;27;19904;-70
2023/08/11 04:49:38;;;;;;;;;;;22.20;99.90;;;;;;5136597;27;19910;-70
2023/08/11 04:52:04;;;;;;;;;;;22.10;99.90;;;;;;5136108;27;19904;-70
2023/08/11 04:54:30;;;;;;;;;;;22.20;99.90;;;;;;5136234;27;19904;-71
2023/08/11 04:56:56;;;;;;;;;;;22.20;99.90;;;;;;5136090;27;20060;-70
2023/08/11 04:59:21;;;;;;;;;;;22.20;99.90;;;;;;5136348;27;19972;-70
2023/08/11 05:01:48;;;;;;;;;;;22.30;99.90;;;;;;5135905;27;19911;-70
2023/08/11 05:04:14;;;;;;;;;;;22.30;99.90;;;;;;5136562;27;19947;-70
2023/08/11 05:06:40;;;;;;;;;;;22.40;99.90;;;;;;5136020;27;19998;-70
2023/08/11 05:09:06;;;;;;;;;;;22.40;99.90;;;;;;5136156;27;19907;-70
2023/08/11 05:11:32;;;;;;;;;;;22.50;99.90;;;;;;5135983;27;20360;-71
2023/08/11 05:13:58;;;;;;;;;;;22.60;99.90;;;;;;5134182;27;19911;-71
2023/08/11 05:16:25;;;;;;;;;;;22.70;99.90;;;;;;5136069;27;19911;-70
2023/08/11 05:18:51;;;;;;;;;;;22.70;99.90;;;;;;5135512;27;19910;-71
2023/08/11 05:21:17;;;;;;;;;;;23.20;99.90;;;;;;5135218;27;20001;-70
2023/08/11 05:23:43;;;;;;;;;;;24.00;99.90;;;;;;5135149;27;19903;-70
2023/08/11 05:26:09;;;;;;;;;;;24.80;99.90;;;;;;5135369;27;19903;-70
2023/08/11 05:28:36;;;;;;;;;;;25.50;99.90;;;;;;5134959;27;19913;-70
2023/08/11 05:31:04;;;;;;;;;;;25.70;99.90;;;;;;5135611;27;19947;-71
2023/08/11 05:33:30;;;;;;;;;;;25.60;99.90;;;;;;5135463;27;19903;-70
2023/08/11 05:35:56;;;;;;;;;;;26.00;99.90;;;;;;5135617;27;19959;-69
2023/08/11 05:38:25;;;;;;;;;;;26.60;99.90;;;;;;5133855;27;20006;-69
2023/08/11 05:40:51;;;;;;;;;;;27.10;99.90;;;;;;5135025;27;19907;-69
2023/08/11 05:43:17;;;;;;;;;;;27.70;99.90;;;;;;5134886;27;19907;-70
2023/08/11 05:45:43;;;;;;;;;;;28.10;99.90;;;;;;5134823;27;19904;-71
2023/08/11 05:48:09;;;;;;;;;;;28.40;99.90;;;;;;5134784;27;19914;-69
2023/08/11 05:50:35;;;;;;;;;;;28.50;99.90;;;;;;5135052;27;19903;-70
2023/08/11 05:53:01;;;;;;;;;;;29.00;99.90;;;;;;5134536;27;19910;-70
2023/08/11 05:55:27;;;;;;;;;;;29.30;99.90;;;;;;5134685;27;19903;-70
2023/08/11 05:57:53;;;;;;;;;;;29.70;99.90;;;;;;5134584;27;19942;-70
2023/08/11 06:00:19;;;;;;;;;;;29.90;99.90;;;;;;5134556;27;19903;-70
2023/08/11 06:02:47;;;;;;;;;;;30.20;99.90;;;;;;5134971;27;19924;-70
2023/08/11 06:05:15;;;;;;;;;;;30.70;99.90;;;;;;5133210;27;20363;-71
2023/08/11 06:07:40;;;;;;;;;;;30.40;99.90;;;;;;5134470;27;19956;-70
2023/08/11 06:10:07;;;;;;;;;;;31.10;99.90;;;;;;5134892;27;19991;-71
2023/08/11 06:12:33;;;;;;;;;;;31.40;99.90;;;;;;5133125;27;19904;-70
2023/08/11 06:14:59;;;;;;;;;;;30.70;99.90;;;;;;5134779;27;19969;-70
2023/08/11 06:17:25;;;;;;;;;;;31.20;99.90;;;;;;5134686;27;20305;-70
2023/08/11 06:19:51;;;;;;;;;;;31.30;99.90;;;;;;5134670;27;19963;-69
2023/08/11 06:22:17;;;;;;;;;;;32.20;99.90;;;;;;5133982;27;19922;-71
2023/08/11 06:24:43;;;;;;;;;;;32.00;99.90;;;;;;5134740;27;19904;-70
2023/08/11 06:27:09;;;;;;;;;;;32.70;99.90;;;;;;5134364;27;19903;-71
2023/08/11 06:29:36;;;;;;;;;;;33.10;99.90;;;;;;5134338;27;19910;-71
2023/08/11 06:32:02;;;;;;;;;;;32.50;99.90;;;;;;5134002;27;19911;-70
2023/08/11 06:34:28;;;;;;;;;;;31.50;99.90;;;;;;5134465;27;19907;-70
2023/08/11 06:36:54;;;;;;;;;;;31.60;99.90;;;;;;5133966;27;20011;-71
2023/08/11 06:39:20;;;;;;;;;;;31.70;99.90;;;;;;5133749;27;19966;-69
2023/08/11 06:41:46;;;;;;;;;;;32.20;99.90;;;;;;5133789;27;19915;-70
2023/08/11 06:44:12;;;;;;;;;;;32.80;99.90;;;;;;5132454;27;19903;-70
2023/08/11 06:46:37;;;;;;;;;;;33.20;99.90;;;;;;5134358;27;19948;-70
2023/08/11 06:49:03;;;;;;;;;;;34.40;99.20;;;;;;5133987;27;19938;-70
2023/08/11 06:51:29;;;;;;;;;;;33.80;99.10;;;;;;5133616;27;20312;-69
2023/08/11 06:53:55;;;;;;;;;;;35.00;98.40;;;;;;5132147;27;19970;-69
2023/08/11 06:56:21;;;;;;;;;;;36.60;96.50;;;;;;5134122;27;19949;-70
2023/08/11 06:58:47;;;;;;;;;;;37.40;95.00;;;;;;5132226;27;19949;-70
2023/08/11 07:01:17;;;;;;;;;;;37.60;94.50;;;;;;5133964;27;19923;-70
2023/08/11 07:03:43;;;;;;;;;;;38.50;94.00;;;;;;5133293;27;20016;-70
2023/08/11 07:06:09;;;;;;;;;;;39.60;92.80;;;;;;5133574;27;19950;-71
2023/08/11 07:08:35;;;;;;;;;;;39.80;91.80;;;;;;5133486;27;19939;-70
2023/08/11 07:11:01;;;;;;;;;;;40.40;90.90;;;;;;5131993;28;20386;-70
2023/08/11 07:13:27;;;;;;;;;;;40.70;90.10;;;;;;5133797;27;19951;-69
2023/08/11 07:15:56;;;;;;;;;;;40.90;88.90;;;;;;5133666;28;19907;-69
2023/08/11 07:18:22;;;;;;;;;;;40.40;87.50;;;;;;5133349;27;20267;-70
2023/08/11 07:20:48;;;;;;;;;;;40.50;87.40;;;;;;5131995;28;19912;-70
2023/08/11 07:23:16;;;;;;;;;;;39.70;88.60;;;;;;5133278;27;20001;-70
2023/08/11 07:25:42;;;;;;;;;;;39.60;87.60;;;;;;5131794;28;19903;-70
2023/08/11 07:28:08;;;;;;;;;;;38.80;88.90;;;;;;5133454;27;20211;-70
2023/08/11 07:30:36;;;;;;;;;;;38.00;90.10;;;;;;5131898;28;20336;-70
2023/08/11 07:33:02;;;;;;;;;;;37.60;90.30;;;;;;5134246;27;19939;-71
2023/08/11 07:35:28;;;;;;;;;;;37.10;90.80;;;;;;5133363;27;19907;-70
2023/08/11 07:37:54;;;;;;;;;;;36.50;91.40;;;;;;5133072;27;20005;-70
2023/08/11 07:40:20;;;;;;;;;;;36.40;91.80;;;;;;5133519;27;19943;-70
2023/08/11 07:42:46;;;;;;;;;;;36.10;91.90;;;;;;5133197;27;20019;-71
2023/08/11 07:45:12;;;;;;;;;;;35.80;92.40;;;;;;5133429;27;20358;-70
2023/08/11 07:47:38;;;;;;;;;;;35.80;92.40;;;;;;5133175;27;19903;-71
2023/08/11 07:50:04;;;;;;;;;;;35.50;92.70;;;;;;5133083;27;19903;-71
2023/08/11 07:52:30;;;;;;;;;;;35.40;92.60;;;;;;5132968;27;19972;-71
2023/08/11 07:54:56;;;;;;;;;;;35.30;92.70;;;;;;5133298;27;20335;-71
2023/08/11 07:57:22;;;;;;;;;;;35.30;92.90;;;;;;5132982;28;19926;-70
2023/08/11 07:59:47;;;;;;;;;;;35.40;92.70;;;;;;5132855;27;19903;-70
2023/08/11 08:02:13;;;;;;;;;;;34.70;93.10;;;;;;5135624;27;19911;-70
2023/08/11 08:04:39;;;;;;;;;;;34.30;93.60;;;;;;5137462;27;19903;-70
2023/08/11 08:07:05;;;;;;;;;;;34.50;93.60;;;;;;5135229;27;20347;-70
2023/08/11 08:09:33;;;;;;;;;;;34.50;93.50;;;;;;5136745;27;19926;-71
2023/08/11 08:12:00;;;;;;;;;;;34.30;93.90;;;;;;5136562;27;19903;-70
2023/08/11 08:14:26;;;;;;;;;;;34.40;93.70;;;;;;5137081;27;20010;-70
2023/08/11 08:16:52;;;;;;;;;;;33.70;93.90;;;;;;5136486;27;19999;-71
2023/08/11 08:19:20;;;;;;;;;;;33.40;94.70;;;;;;5136673;27;19934;-70
2023/08/11 08:21:48;;;;;;;;;;;33.70;93.90;;;;;;5136132;27;20387;-70
2023/08/11 08:24:14;;;;;;;;;;;33.20;91.50;;;;;;5136618;27;19908;-71
2023/08/11 08:26:41;;;;;;;;;;;33.40;91.50;;;;;;5136290;27;19903;-70
2023/08/11 08:29:07;;;;;;;;;;;33.80;91.60;;;;;;5136251;27;19907;-70
2023/08/11 08:31:33;;;;;;;;;;;33.30;90.90;;;;;;5134980;27;19978;-72
2023/08/11 08:33:59;;;;;;;;;;;33.20;90.40;;;;;;5136349;27;19907;-71
2023/08/11 08:36:25;;;;;;;;;;;33.20;91.30;;;;;;5136529;27;19911;-70
2023/08/11 08:38:51;;;;;;;;;;;33.20;90.60;;;;;;5135886;27;19915;-70
2023/08/11 08:41:23;;;;;;;;;;;33.30;90.80;;;;;;5136310;27;19907;-69
2023/08/11 08:43:52;;;;;;;;;;;33.30;90.90;;;;;;5136018;27;19908;-71
2023/08/11 08:46:20;;;;;;;;;;;33.30;90.90;;;;;;5136463;27;19904;-69
2023/08/11 08:48:52;;;;;;;;;;;33.40;90.80;;;;;;5136470;27;20397;-71
2023/08/11 08:51:18;;;;;;;;;;;33.80;90.80;;;;;;5134863;27;20351;-70
2023/08/11 08:53:44;;;;;;;;;;;33.80;90.40;;;;;;5135619;27;19911;-69
2023/08/11 08:56:10;;;;;;;;;;;33.60;90.40;;;;;;5136338;27;19903;-70
2023/08/11 08:58:36;;;;;;;;;;;33.20;91.20;;;;;;5135821;27;20285;-70
2023/08/11 09:01:03;;;;;;;;;;;33.30;91.20;;;;;;5136029;27;20323;-70
2023/08/11 09:03:30;;;;;;;;;;;32.80;91.70;;;;;;5135607;27;19938;-70
2023/08/11 09:05:56;;;;;;;;;;;32.60;92.10;;;;;;5136161;27;19942;-70
2023/08/11 09:08:22;;;;;;;;;;;32.60;92.20;;;;;;5135371;27;19915;-70
2023/08/11 09:10:48;;;;;;;;;;;32.30;92.10;;;;;;5135418;27;19932;-70
2023/08/11 09:13:15;;;;;;;;;;;32.20;92.30;;;;;;5134806;27;19910;-70
2023/08/11 09:15:41;;;;;;;;;;;32.30;92.30;;;;;;5135433;27;19903;-70
2023/08/11 09:18:07;;;;;;;;;;;32.30;92.30;;;;;;5135702;27;19959;-70
2023/08/11 09:20:33;;;;;;;;;;;32.00;92.80;;;;;;5133905;27;20001;-70
2023/08/11 09:22:59;;;;;;;;;;;31.80;92.40;;;;;;5134913;27;19911;-70
2023/08/11 09:25:27;;;;;;;;;;;31.60;92.70;;;;;;5135515;27;20261;-70
2023/08/11 09:27:53;;;;;;;;;;;31.60;92.70;;;;;;5133797;27;19903;-70
2023/08/11 09:30:19;;;;;;;;;;;31.20;93.10;;;;;;5134894;27;19903;-71
2023/08/11 09:32:49;;;;;;;;;;;31.10;93.60;;;;;;5135547;27;19911;-70
2023/08/11 09:35:21;;;;;;;;;;;31.30;93.70;;;;;;5135235;27;19911;-71
2023/08/11 09:37:47;;;;;;;;;;;31.20;93.90;;;;;;5135077;27;19968;-70
2023/08/11 09:40:13;;;;;;;;;;;31.40;93.90;;;;;;5135232;27;20337;-70
2023/08/11 09:42:41;;;;;;;;;;;31.40;94.00;;;;;;5134899;27;19968;-70
2023/08/11 09:45:07;;;;;;;;;;;31.30;94.20;;;;;;5134931;27;19950;-70
2023/08/11 09:47:33;;;;;;;;;;;31.30;94.20;;;;;;5134675;27;19903;-70
2023/08/11 09:49:59;;;;;;;;;;;31.50;94.50;;;;;;5134730;27;19903;-70
2023/08/11 09:52:25;;;;;;;;;;;31.50;95.00;;;;;;5133696;27;20430;-70
2023/08/11 09:54:55;;;;;;;;;;;31.40;95.30;;;;;;5134791;27;19903;-70
2023/08/11 09:57:21;;;;;;;;;;;31.30;95.60;;;;;;5134667;27;20029;-70
2023/08/11 09:59:47;;;;;;;;;;;31.20;95.60;;;;;;5134508;27;19911;-69
2023/08/11 10:02:16;;;;;;;;;;;31.30;95.40;;;;;;5134334;27;19912;-70
2023/08/11 10:04:46;;;;;;;;;;;31.00;95.70;;;;;;5134906;27;19938;-70
2023/08/11 10:07:13;;;;;;;;;;;30.80;95.40;;;;;;5134253;27;19904;-70
2023/08/11 10:09:39;;;;;;;;;;;30.70;96.20;;;;;;5134303;27;19910;-70
2023/08/11 10:12:06;;;;;;;;;;;30.60;96.60;;;;;;5134525;27;19941;-71
2023/08/11 10:14:34;;;;;;;;;;;30.70;96.50;;;;;;5133029;27;20002;-70
2023/08/11 10:17:00;;;;;;;;;;;30.70;96.70;;;;;;5134559;27;19903;-69
2023/08/11 10:19:26;;;;;;;;;;;30.60;96.80;;;;;;5134332;27;20336;-70
2023/08/11 10:21:52;;;;;;;;;;;30.60;96.80;;;;;;5133949;27;19911;-70
2023/08/11 10:24:20;;;;;;;;;;;30.60;96.80;;;;;;5134201;27;19904;-70
2023/08/11 10:26:46;;;;;;;;;;;30.30;96.90;;;;;;5133989;27;19910;-71
2023/08/11 10:29:12;;;;;;;;;;;30.00;97.20;;;;;;5134046;27;19986;-70
2023/08/11 10:31:42;;;;;;;;;;;30.10;97.70;;;;;;5134048;27;19950;-70
2023/08/11 10:34:08;;;;;;;;;;;30.00;97.80;;;;;;5134000;27;19903;-70
2023/08/11 10:36:34;;;;;;;;;;;30.00;97.10;;;;;;5133815;27;19911;-70
2023/08/11 10:39:00;;;;;;;;;;;30.10;97.50;;;;;;5133686;27;20347;-70
2023/08/11 10:41:27;;;;;;;;;;;30.20;97.10;;;;;;5133804;27;20042;-71
2023/08/11 10:43:53;;;;;;;;;;;30.40;96.80;;;;;;5132398;27;19903;-70
2023/08/11 10:46:27;;;;;;;;;;;30.40;96.20;;;;;;5133629;27;19903;-69
2023/08/11 10:48:53;;;;;;;;;;;30.10;96.60;;;;;;5133696;27;19903;-70
2023/08/11 10:51:30;;;;;;;;;;;30.00;97.00;;;;;;5133984;27;20208;-70
2023/08/11 10:54:16;;;;;;;;;;;30.10;96.10;;;;;;5133825;27;20040;-71
2023/08/11 10:56:43;;;;;;;;;;;30.10;96.30;;;;;;5122773;27;19903;-70
2023/08/11 10:59:13;;;;;;;;;;;30.10;96.00;;;;;;5133702;27;19907;-70
2023/08/11 11:01:40;;;;;;;;;;;30.20;95.80;;;;;;5133317;27;20360;-71
2023/08/11 11:04:07;;;;;;;;;;;30.10;96.20;;;;;;5133985;27;19927;-71
2023/08/11 11:06:33;;;;;;;;;;;29.80;96.90;;;;;;5133573;27;20339;-70
2023/08/11 11:08:59;;;;;;;;;;;29.80;97.60;;;;;;5133460;27;19903;-71
2023/08/11 11:11:25;;;;;;;;;;;29.60;96.80;;;;;;5133661;27;20240;-70
2023/08/11 11:13:52;;;;;;;;;;;29.80;95.90;;;;;;5132119;28;20324;-70
2023/08/11 11:16:21;;;;;;;;;;;30.10;96.20;;;;;;5133317;27;19903;-71
2023/08/11 11:18:47;;;;;;;;;;;30.20;96.40;;;;;;5132027;28;19913;-71
2023/08/11 11:21:14;;;;;;;;;;;30.10;96.40;;;;;;5131888;28;20006;-71
2023/08/11 11:23:46;;;;;;;;;;;30.20;96.00;;;;;;5133370;27;19935;-70
2023/08/11 11:26:14;;;;;;;;;;;30.40;94.70;;;;;;5133284;27;19956;-71
2023/08/11 11:28:40;;;;;;;;;;;30.30;94.90;;;;;;5133392;27;19910;-71
2023/08/11 11:31:06;;;;;;;;;;;30.30;94.70;;;;;;5133404;27;19983;-70
2023/08/11 11:33:32;;;;;;;;;;;30.10;95.70;;;;;;5131864;28;20288;-71
2023/08/11 11:35:58;;;;;;;;;;;30.10;95.30;;;;;;5132106;27;19911;-71
2023/08/11 11:38:24;;;;;;;;;;;30.00;95.80;;;;;;5135661;27;19938;-71
2023/08/11 11:40:51;;;;;;;;;;;30.10;96.50;;;;;;5137276;27;20348;-71
2023/08/11 11:43:17;;;;;;;;;;;30.10;96.20;;;;;;5137750;27;20003;-71
2023/08/11 11:45:45;;;;;;;;;;;30.20;94.50;;;;;;5137479;27;20386;-71
2023/08/11 11:48:11;;;;;;;;;;;29.90;96.90;;;;;;5137469;27;19947;-71
2023/08/11 11:50:36;;;;;;;;;;;30.10;96.40;;;;;;5137233;27;19960;-70
2023/08/11 11:53:03;;;;;;;;;;;30.00;95.10;;;;;;5137062;27;19911;-71
2023/08/11 11:55:28;;;;;;;;;;;30.20;96.10;;;;;;5135682;27;19910;-71
2023/08/11 11:57:55;;;;;;;;;;;30.30;95.70;;;;;;5137460;27;19903;-71
2023/08/11 12:00:22;;;;;;;;;;;30.30;96.00;;;;;;5137247;27;20342;-71
2023/08/11 12:02:48;;;;;;;;;;;30.30;97.80;;;;;;5136872;27;19979;-71
2023/08/11 12:05:14;;;;;;;;;;;30.30;99.10;;;;;;5137389;27;20339;-71
2023/08/11 12:07:40;;;;;;;;;;;30.30;99.90;;;;;;5136856;27;19910;-71
2023/08/11 12:10:06;;;;;;;;;;;29.90;99.90;;;;;;5137198;27;19903;-72
2023/08/11 12:12:32;;;;;;;;;;;30.20;99.90;;;;;;5136982;27;19952;-72
2023/08/11 12:15:02;;;;;;;;;;;30.10;99.90;;;;;;5136832;27;19904;-71
2023/08/11 12:17:32;;;;;;;;;;;30.20;99.90;;;;;;5136954;27;19933;-71
2023/08/11 12:19:58;;;;;;;;;;;30.50;99.90;;;;;;5135670;27;19904;-69
2023/08/11 12:22:24;;;;;;;;;;;30.50;99.90;;;;;;5136397;27;19915;-70
2023/08/11 12:24:51;;;;;;;;;;;30.40;99.90;;;;;;5136641;27;19922;-70
2023/08/11 12:27:17;;;;;;;;;;;30.30;99.90;;;;;;5136560;27;19915;-71
2023/08/11 12:29:42;;;;;;;;;;;29.90;99.90;;;;;;5136827;27;20303;-70
2023/08/11 12:32:08;;;;;;;;;;;29.90;99.90;;;;;;5136426;27;19907;-70
2023/08/11 12:34:34;;;;;;;;;;;29.90;99.90;;;;;;5134897;27;19994;-70
2023/08/11 12:37:00;;;;;;;;;;;29.90;99.90;;;;;;5136294;27;19903;-71
2023/08/11 12:39:25;;;;;;;;;;;29.90;99.90;;;;;;5136061;27;20283;-71
2023/08/11 12:41:51;;;;;;;;;;;30.10;99.90;;;;;;5134906;27;19987;-70
2023/08/11 12:44:17;;;;;;;;;;;30.30;99.90;;;;;;5136718;27;19954;-69
2023/08/11 12:46:43;;;;;;;;;;;30.50;99.90;;;;;;5136343;27;19914;-70
2023/08/11 12:49:09;;;;;;;;;;;30.50;99.90;;;;;;5136278;27;19914;-69
2023/08/11 12:51:35;;;;;;;;;;;30.40;99.90;;;;;;5135987;27;19903;-70
2023/08/11 12:54:01;;;;;;;;;;;30.20;99.90;;;;;;5135924;27;19955;-70
2023/08/11 12:56:27;;;;;;;;;;;30.00;99.90;;;;;;5135928;27;20007;-70
2023/08/11 12:58:53;;;;;;;;;;;30.10;99.90;;;;;;5136028;27;19964;-72
2023/08/11 13:01:19;;;;;;;;;;;30.40;99.90;;;;;;5135886;27;19907;-70
2023/08/11 13:03:44;;;;;;;;;;;30.40;99.90;;;;;;5135831;27;19914;-71
2023/08/11 13:06:10;;;;;;;;;;;30.40;99.90;;;;;;5135812;27;20009;-70
2023/08/11 13:08:36;;;;;;;;;;;30.30;99.90;;;;;;5134127;27;19912;-70
2023/08/11 13:11:02;;;;;;;;;;;30.10;99.90;;;;;;5136120;27;19911;-71
2023/08/11 13:13:28;;;;;;;;;;;30.00;99.90;;;;;;5135892;27;19982;-71
2023/08/11 13:15:54;;;;;;;;;;;30.10;99.90;;;;;;5135596;27;20030;-70
2023/08/11 13:18:19;;;;;;;;;;;30.30;99.90;;;;;;5135600;27;20395;-70
2023/08/11 13:20:45;;;;;;;;;;;30.40;99.90;;;;;;5135971;27;19904;-70
2023/08/11 13:23:11;;;;;;;;;;;30.20;99.90;;;;;;5134097;27;19960;-70
2023/08/11 13:25:37;;;;;;;;;;;30.10;99.90;;;;;;5135240;27;19964;-72
2023/08/11 13:28:03;;;;;;;;;;;30.10;99.90;;;;;;5133925;27;19960;-71
2023/08/11 13:30:31;;;;;;;;;;;30.30;99.90;;;;;;5135400;27;19910;-72
2023/08/11 13:32:59;;;;;;;;;;;30.30;99.90;;;;;;5135304;27;19943;-71
2023/08/11 13:35:25;;;;;;;;;;;30.10;99.90;;;;;;5135850;27;19904;-72
2023/08/11 13:37:51;;;;;;;;;;;30.20;99.90;;;;;;5134663;27;20371;-70
2023/08/11 13:40:18;;;;;;;;;;;30.10;99.90;;;;;;5134992;27;19959;-71
2023/08/11 13:42:44;;;;;;;;;;;30.20;99.90;;;;;;5133643;27;19930;-71
2023/08/11 13:45:10;;;;;;;;;;;30.10;99.90;;;;;;5135158;27;19911;-71
2023/08/11 13:47:36;;;;;;;;;;;29.60;99.90;;;;;;5133598;27;19904;-71
2023/08/11 13:50:02;;;;;;;;;;;29.40;99.90;;;;;;5134975;27;20003;-71
2023/08/11 13:52:28;;;;;;;;;;;29.50;99.90;;;;;;5134717;27;19904;-71
2023/08/11 13:55:01;;;;;;;;;;;29.70;99.90;;;;;;5133465;27;20209;-71
2023/08/11 13:57:27;;;;;;;;;;;29.60;99.90;;;;;;5133311;27;20351;-71
2023/08/11 13:59:54;;;;;;;;;;;29.90;99.90;;;;;;5134662;27;19917;-71
2023/08/11 14:02:20;;;;;;;;;;;29.70;99.90;;;;;;5134600;27;19915;-71
2023/08/11 14:04:46;;;;;;;;;;;29.90;99.90;;;;;;5134585;27;19919;-70
2023/08/11 14:07:12;;;;;;;;;;;29.90;99.90;;;;;;5134414;27;20263;-70
2023/08/11 14:09:38;;;;;;;;;;;30.00;99.90;;;;;;5134614;27;20330;-70
2023/08/11 14:12:04;;;;;;;;;;;29.90;99.90;;;;;;5134881;27;19955;-71